Time;durP1;ratioP1;P1;durP2;ratioP2;P2;SDS_P1;SDS_P2;PMS_P1;PMS_P2;Temp;Humidity;BMP_temperature;BMP_pressure;BME280_temperature;BME280_humidity;BME280_pressure;Samples;Min_cycle;Max_cycle;Signal;HPM_P1;HPM_P2
2022/04/24 00:00:57;;;;;;;;;;;;;;;12.48;62.52;98376.91;4993098;28;19925;-64
2022/04/24 00:03:41;;;;;;;;;;;;;;;12.48;62.36;98383.81;5019086;28;19943;-65
2022/04/24 00:06:25;;;;;;;;;;;;;;;12.47;62.36;98375.19;5018720;28;19924;-65
2022/04/24 00:09:09;;;;;;;;;;;;;;;12.47;62.37;98375.19;5018479;28;19924;-65
2022/04/24 00:11:53;;;;;;;;;;;;;;;12.47;62.33;98384.72;5033608;28;19924;-64
2022/04/24 00:14:37;;;;;;;;;;;;;;;12.47;62.28;98380.38;5033502;28;19923;-65
2022/04/24 00:17:21;;;;;;;;;;;;;;;12.45;62.52;98371.75;5032977;28;19963;-65
2022/04/24 00:20:06;;;;;;;;;;;;;;;12.46;62.29;98381.28;5033198;28;19987;-65
2022/04/24 00:22:49;;;;;;;;;;;;;;;12.45;62.34;98370.91;5018313;28;20403;-65
2022/04/24 00:25:33;;;;;;;;;;;;;;;12.46;62.31;98372.59;5033234;28;19925;-65
2022/04/24 00:28:17;;;;;;;;;;;;;;;12.43;62.11;98370.94;5018352;28;20446;-65
2022/04/24 00:31:01;;;;;;;;;;;;;;;12.41;62.22;98364.91;5033463;28;20010;-65
2022/04/24 00:33:45;;;;;;;;;;;;;;;12.41;62.08;98364.91;5033612;28;19928;-65
2022/04/24 00:36:29;;;;;;;;;;;;;;;12.42;62.13;98363.19;5022248;28;19951;-65
2022/04/24 00:39:13;;;;;;;;;;;;;;;12.39;62.38;98366.66;5022110;28;19923;-65
2022/04/24 00:41:57;;;;;;;;;;;;;;;12.40;62.15;98373.56;5021843;28;19923;-65
2022/04/24 00:44:41;;;;;;;;;;;;;;;12.39;62.30;98371.84;5036610;28;20337;-65
2022/04/24 00:47:25;;;;;;;;;;;;;;;12.40;62.24;98370.97;5036466;28;20011;-65
2022/04/24 00:50:09;;;;;;;;;;;;;;;12.40;62.03;98370.97;5036692;28;19947;-66
2022/04/24 00:52:53;;;;;;;;;;;;;;;12.39;62.08;98371.03;5036646;28;19924;-65
2022/04/24 00:55:37;;;;;;;;;;;;;;;12.38;62.15;98375.34;5036540;28;20402;-65
2022/04/24 00:58:21;;;;;;;;;;;;;;;12.36;61.94;98371.94;5022107;28;20303;-65
2022/04/24 01:01:05;;;;;;;;;;;;;;;12.37;62.23;98375.38;5036360;28;20370;-65
2022/04/24 01:03:49;;;;;;;;;;;;;;;12.37;62.19;98367.59;5021923;28;20291;-65
2022/04/24 01:06:34;;;;;;;;;;;;;;;12.34;62.06;98361.56;5036351;28;20379;-65
2022/04/24 01:09:26;;;;;;;;;;;;;;;12.34;62.32;98364.16;5021242;28;20395;-65
2022/04/24 01:12:12;;;;;;;;;;;;;;;12.35;62.31;98370.22;5036770;28;19923;-65
2022/04/24 01:14:56;;;;;;;;;;;;;;;12.37;62.29;98367.59;5036740;28;20391;-65
2022/04/24 01:17:40;;;;;;;;;;;;;;;12.35;62.32;98367.63;5036352;28;19924;-65
2022/04/24 01:20:24;;;;;;;;;;;;;;;12.35;62.35;98359.84;5021491;28;20327;-66
2022/04/24 01:23:09;;;;;;;;;;;;;;;12.35;62.39;98359.84;5036149;28;19924;-65
2022/04/24 01:25:52;;;;;;;;;;;;;;;12.36;62.39;98360.69;5035708;28;20406;-65
2022/04/24 01:28:36;;;;;;;;;;;;;;;12.34;62.44;98356.38;5020896;28;20387;-65
2022/04/24 01:31:20;;;;;;;;;;;;;;;12.33;62.68;98348.63;5036300;28;19925;-66
2022/04/24 01:34:04;;;;;;;;;;;;;;;12.32;62.60;98355.53;5035526;28;19974;-66
2022/04/24 01:36:48;;;;;;;;;;;;;;;12.32;62.62;98357.28;5035665;28;20440;-64
2022/04/24 01:39:32;;;;;;;;;;;;;;;12.31;62.59;98355.56;5021144;28;19924;-65
2022/04/24 01:42:16;;;;;;;;;;;;;;;12.30;62.58;98362.50;5021061;28;19924;-65
2022/04/24 01:45:00;;;;;;;;;;;;;;;12.30;62.69;98364.25;5020586;28;20433;-64
2022/04/24 01:47:44;;;;;;;;;;;;;;;12.29;62.32;98365.13;5035534;28;20395;-66
2022/04/24 01:50:28;;;;;;;;;;;;;;;12.30;62.47;98364.25;5020824;28;19984;-65
2022/04/24 01:53:12;;;;;;;;;;;;;;;12.28;62.54;98366.88;5021067;28;19959;-65
2022/04/24 01:56:01;;;;;;;;;;;;;;;12.27;62.46;98353.91;5035056;28;19923;-64
2022/04/24 01:58:45;;;;;;;;;;;;;;;12.27;62.52;98359.97;5021007;28;20034;-65
2022/04/24 02:01:28;;;;;;;;;;;;;;;12.26;62.37;98349.59;5035213;28;19931;-65
2022/04/24 02:04:12;;;;;;;;;;;;;;;12.26;62.85;98357.38;5034940;28;19924;-65
2022/04/24 02:06:56;;;;;;;;;;;;;;;12.24;62.68;98354.81;5035046;28;19959;-65
2022/04/24 02:09:40;;;;;;;;;;;;;;;12.23;62.76;98353.13;5020464;28;19924;-65
2022/04/24 02:12:24;;;;;;;;;;;;;;;12.24;62.36;98351.34;5035152;28;19947;-65
2022/04/24 02:15:08;;;;;;;;;;;;;;;12.23;62.33;98352.25;5035118;28;20012;-65
2022/04/24 02:17:52;;;;;;;;;;;;;;;12.22;62.32;98358.34;5034677;28;19959;-66
2022/04/24 02:20:36;;;;;;;;;;;;;;;12.20;62.33;98350.56;5035039;28;20300;-65
2022/04/24 02:23:20;;;;;;;;;;;;;;;12.18;62.34;98350.59;5019816;28;19942;-65
2022/04/24 02:26:04;;;;;;;;;;;;;;;12.18;62.19;98350.59;5034412;28;20351;-64
2022/04/24 02:28:49;;;;;;;;;;;;;;;12.18;62.48;98349.72;5034662;28;19924;-65
2022/04/24 02:31:33;;;;;;;;;;;;;;;12.16;62.39;98354.97;5019897;28;19924;-64
2022/04/24 02:34:16;;;;;;;;;;;;;;;12.15;62.13;98353.25;5034611;28;19940;-65
2022/04/24 02:37:00;;;;;;;;;;;;;;;12.15;62.24;98357.56;5034395;28;20008;-65
2022/04/24 02:39:44;;;;;;;;;;;;;;;12.13;62.56;98359.34;5034306;28;19963;-65
2022/04/24 02:42:28;;;;;;;;;;;;;;;12.11;62.11;98351.56;5034305;28;19924;-65
2022/04/24 02:45:12;;;;;;;;;;;;;;;12.12;62.34;98353.28;5034099;28;19923;-65
2022/04/24 02:47:56;;;;;;;;;;;;;;;12.10;62.17;98355.06;5034743;28;19924;-65
2022/04/24 02:50:40;;;;;;;;;;;;;;;12.10;62.21;98360.25;5019679;28;20342;-64
2022/04/24 02:53:24;;;;;;;;;;;;;;;12.10;62.08;98355.06;5019516;28;19924;-66
2022/04/24 02:56:08;;;;;;;;;;;;;;;12.08;62.18;98346.44;5034368;28;19963;-65
2022/04/24 02:58:52;;;;;;;;;;;;;;;12.09;62.59;98353.34;5033371;28;19940;-66
2022/04/24 03:01:36;;;;;;;;;;;;;;;12.10;62.46;98360.25;5033899;28;20394;-65
2022/04/24 03:04:20;;;;;;;;;;;;;;;12.10;62.16;98357.66;5034125;28;20331;-65
2022/04/24 03:07:04;;;;;;;;;;;;;;;12.10;62.42;98349.03;5019616;28;20284;-65
2022/04/24 03:09:48;;;;;;;;;;;;;;;12.10;62.74;98354.22;5019714;28;19924;-65
2022/04/24 03:12:32;;;;;;;;;;;;;;;12.10;62.42;98346.41;5033953;28;19923;-65
2022/04/24 03:15:16;;;;;;;;;;;;;;;12.08;62.13;98351.63;5019635;28;19928;-65
2022/04/24 03:18:00;;;;;;;;;;;;;;;12.08;62.24;98350.78;5033899;28;19932;-65
2022/04/24 03:20:44;;;;;;;;;;;;;;;12.08;62.62;98353.38;5019397;28;19923;-65
2022/04/24 03:23:28;;;;;;;;;;;;;;;12.06;62.28;98358.59;5033871;28;20027;-65
2022/04/24 03:26:13;;;;;;;;;;;;;;;12.06;62.25;98352.53;5033492;28;20004;-65
2022/04/24 03:28:57;;;;;;;;;;;;;;;12.05;62.12;98356.03;5034103;28;19924;-65
2022/04/24 03:31:41;;;;;;;;;;;;;;;12.03;62.40;98361.25;5033952;28;19925;-65
2022/04/24 03:34:26;;;;;;;;;;;;;;;12.03;62.35;98358.66;5033771;28;19928;-65
2022/04/24 03:37:10;;;;;;;;;;;;;;;12.00;62.37;98356.09;5033522;28;19939;-65
2022/04/24 03:39:54;;;;;;;;;;;;;;;11.98;61.99;98356.16;5033754;28;20383;-65
2022/04/24 03:42:38;;;;;;;;;;;;;;;11.97;62.24;98358.72;5019331;28;20012;-65
2022/04/24 03:45:22;;;;;;;;;;;;;;;11.96;62.14;98362.19;5034136;28;19971;-65
2022/04/24 03:48:06;;;;;;;;;;;;;;;11.95;62.38;98358.75;5033607;28;20399;-65
2022/04/24 03:50:50;;;;;;;;;;;;;;;11.95;62.54;98352.69;5018827;28;19942;-65
2022/04/24 03:53:34;;;;;;;;;;;;;;;11.94;62.20;98356.16;5033569;28;20296;-65
2022/04/24 03:56:18;;;;;;;;;;;;;;;11.93;62.34;98360.50;5033318;28;19971;-65
2022/04/24 03:59:02;;;;;;;;;;;;;;;11.94;62.35;98362.22;5033606;28;19970;-65
2022/04/24 04:01:46;;;;;;;;;;;;;;;11.94;62.28;98364.81;5018647;28;19928;-65
2022/04/24 04:04:29;;;;;;;;;;;;;;;11.93;62.56;98365.69;5033611;28;19971;-65
2022/04/24 04:07:13;;;;;;;;;;;;;;;11.94;62.44;98358.75;5033569;28;19924;-65
2022/04/24 04:09:57;;;;;;;;;;;;;;;11.93;62.46;98364.84;5035094;28;19924;-64
2022/04/24 04:12:41;;;;;;;;;;;;;;;11.91;62.16;98370.06;5022353;28;19970;-64
2022/04/24 04:15:25;;;;;;;;;;;;;;;11.91;62.14;98377.00;5036991;28;19928;-65
2022/04/24 04:18:09;;;;;;;;;;;;;;;11.89;62.34;98379.59;5037124;28;19924;-65
2022/04/24 04:20:53;;;;;;;;;;;;;;;11.87;62.32;98383.97;5037203;28;20019;-65
2022/04/24 04:23:37;;;;;;;;;;;;;;;11.88;62.61;98390.88;5022511;28;20354;-65
2022/04/24 04:26:23;;;;;;;;;;;;;;;11.85;62.59;98391.78;5036781;28;20327;-65
2022/04/24 04:29:07;;;;;;;;;;;;;;;11.84;62.56;98392.66;5022093;28;19928;-65
2022/04/24 04:31:51;;;;;;;;;;;;;;;11.85;62.59;98401.28;5022474;28;19924;-65
2022/04/24 04:34:35;;;;;;;;;;;;;;;11.84;62.56;98404.78;5037190;28;19928;-65
2022/04/24 04:37:19;;;;;;;;;;;;;;;11.83;62.55;98401.31;5036534;28;19924;-65
2022/04/24 04:40:03;;;;;;;;;;;;;;;11.84;62.25;98397.84;5022108;28;19923;-65
2022/04/24 04:42:50;;;;;;;;;;;;;;;11.85;62.52;98403.88;5021409;28;20406;-65
2022/04/24 04:45:34;;;;;;;;;;;;;;;11.85;62.58;98403.88;5036774;28;20016;-65
2022/04/24 04:48:18;;;;;;;;;;;;;;;11.83;62.33;98410.88;5037172;28;20417;-65
2022/04/24 04:51:02;;;;;;;;;;;;;;;11.82;62.35;98412.59;5021598;28;20299;-65
2022/04/24 04:53:46;;;;;;;;;;;;;;;11.84;62.52;98416.03;5036687;28;19932;-65
2022/04/24 04:56:31;;;;;;;;;;;;;;;11.83;62.24;98419.50;5036427;28;19943;-64
2022/04/24 04:59:14;;;;;;;;;;;;;;;11.83;62.67;98418.66;5036712;28;20288;-65
2022/04/24 05:01:58;;;;;;;;;;;;;;;11.81;62.70;98418.66;5036409;28;19955;-66
2022/04/24 05:04:45;;;;;;;;;;;;;;;11.81;62.36;98423.84;5036030;28;19963;-65
2022/04/24 05:07:29;;;;;;;;;;;;;;;11.80;62.31;98429.91;5036213;28;20311;-65
2022/04/24 05:10:13;;;;;;;;;;;;;;;11.80;62.22;98432.53;5035861;28;20295;-65
2022/04/24 05:12:56;;;;;;;;;;;;;;;11.80;62.58;98422.13;5036039;28;20349;-65
2022/04/24 05:15:40;;;;;;;;;;;;;;;11.79;62.38;98422.16;5036011;28;19967;-65
2022/04/24 05:18:26;;;;;;;;;;;;;;;11.79;62.66;98429.97;5036015;28;20032;-65
2022/04/24 05:21:10;;;;;;;;;;;;;;;11.78;62.51;98420.47;5034970;28;19924;-65
2022/04/24 05:23:54;;;;;;;;;;;;;;;11.77;62.22;98440.34;5021020;28;20434;-65
2022/04/24 05:26:38;;;;;;;;;;;;;;;11.77;62.60;98437.75;5021174;28;19939;-65
2022/04/24 05:29:23;;;;;;;;;;;;;;;11.77;62.71;98435.16;5036097;28;20479;-65
2022/04/24 05:32:07;;;;;;;;;;;;;;;11.77;62.43;98426.53;5036276;28;19924;-65
2022/04/24 05:34:52;;;;;;;;;;;;;;;11.77;62.67;98437.75;5035630;28;20435;-65
2022/04/24 05:37:35;;;;;;;;;;;;;;;11.77;62.64;98437.75;5020979;28;19967;-65
2022/04/24 05:40:19;;;;;;;;;;;;;;;11.76;62.67;98438.63;5035609;28;19927;-65
2022/04/24 05:43:03;;;;;;;;;;;;;;;11.76;62.26;98445.56;5035575;28;19923;-64
2022/04/24 05:45:47;;;;;;;;;;;;;;;11.75;62.50;98444.72;5021287;28;19953;-65
2022/04/24 05:48:31;;;;;;;;;;;;;;;11.75;62.58;98442.13;5020668;28;19939;-65
2022/04/24 05:51:15;;;;;;;;;;;;;;;11.73;62.45;98446.47;5035561;28;19927;-65
2022/04/24 05:53:59;;;;;;;;;;;;;;;11.72;62.76;98461.19;5020362;28;19924;-65
2022/04/24 05:56:44;;;;;;;;;;;;;;;11.72;62.65;98455.16;5035834;28;19963;-64
2022/04/24 05:59:28;;;;;;;;;;;;;;;11.70;62.34;98449.94;5020368;28;19924;-65
2022/04/24 06:02:12;;;;;;;;;;;;;;;11.69;62.60;98456.03;5035554;28;19924;-66
2022/04/24 06:04:56;;;;;;;;;;;;;;;11.70;62.59;98454.31;5035037;28;20014;-65
2022/04/24 06:07:40;;;;;;;;;;;;;;;11.71;62.19;98463.81;5020791;28;19970;-65
2022/04/24 06:10:24;;;;;;;;;;;;;;;11.70;62.42;98462.94;5035077;28;19943;-65
2022/04/24 06:13:08;;;;;;;;;;;;;;;11.69;62.36;98458.63;5035229;28;19924;-65
2022/04/24 06:15:55;;;;;;;;;;;;;;;11.70;62.49;98456.91;5020382;28;19970;-65
2022/04/24 06:18:39;;;;;;;;;;;;;;;11.69;62.53;98457.78;5020536;28;19967;-65
2022/04/24 06:21:23;;;;;;;;;;;;;;;11.69;62.37;98465.56;5034554;28;19923;-65
2022/04/24 06:24:07;;;;;;;;;;;;;;;11.66;62.04;98466.47;5035005;28;19959;-65
2022/04/24 06:26:51;;;;;;;;;;;;;;;11.67;62.59;98459.53;5034910;28;19924;-65
2022/04/24 06:29:35;;;;;;;;;;;;;;;11.66;62.01;98463.00;5035153;28;20422;-65
2022/04/24 06:32:18;;;;;;;;;;;;;;;11.65;61.98;98456.09;5035125;28;20394;-65
2022/04/24 06:35:03;;;;;;;;;;;;;;;11.63;62.17;98457.84;5034446;28;19955;-65
2022/04/24 06:37:48;;;;;;;;;;;;;;;11.62;62.42;98458.72;5019569;28;19967;-65
2022/04/24 06:40:33;;;;;;;;;;;;;;;11.61;62.28;98462.19;5020016;28;19992;-65
2022/04/24 06:43:16;;;;;;;;;;;;;;;11.59;62.27;98462.22;5034537;28;19931;-65
2022/04/24 06:46:00;;;;;;;;;;;;;;;11.60;62.22;98463.09;5034959;28;19973;-65
2022/04/24 06:48:44;;;;;;;;;;;;;;;11.61;62.15;98475.16;5034176;28;19939;-65
2022/04/24 06:51:28;;;;;;;;;;;;;;;11.61;62.30;98462.19;5019796;28;20079;-65
2022/04/24 06:54:12;;;;;;;;;;;;;;;11.62;61.85;98475.16;5019161;28;19923;-65
2022/04/24 06:57:01;;;;;;;;;;;;;;;11.61;62.32;98470.84;5019832;28;20017;-64
2022/04/24 06:59:45;;;;;;;;;;;;;;;11.60;62.26;98468.28;5019398;28;19928;-65
2022/04/24 07:02:29;;;;;;;;;;;;;;;11.58;62.08;98461.38;5034007;28;19968;-65
2022/04/24 07:05:14;;;;;;;;;;;;;;;11.58;62.20;98471.75;5033712;28;19931;-65
2022/04/24 07:07:58;;;;;;;;;;;;;;;11.61;62.26;98476.03;5019485;28;19924;-65
2022/04/24 07:10:42;;;;;;;;;;;;;;;11.60;62.04;98474.31;5033675;28;19949;-65
2022/04/24 07:13:26;;;;;;;;;;;;;;;11.63;61.81;98474.28;5033900;28;19967;-65
2022/04/24 07:16:10;;;;;;;;;;;;;;;11.63;61.92;98478.59;5019135;28;19924;-65
2022/04/24 07:18:54;;;;;;;;;;;;;;;11.62;62.10;98474.28;5019070;28;19924;-64
2022/04/24 07:21:38;;;;;;;;;;;;;;;11.62;62.05;98476.88;5033523;28;19939;-65
2022/04/24 07:24:22;;;;;;;;;;;;;;;11.63;61.80;98478.59;5034360;28;19963;-65
2022/04/24 07:27:06;;;;;;;;;;;;;;;11.63;62.00;98474.28;5033775;28;19963;-64
2022/04/24 07:29:50;;;;;;;;;;;;;;;11.66;62.01;98478.56;5033426;28;19924;-65
2022/04/24 07:32:38;;;;;;;;;;;;;;;11.65;62.02;98482.03;5033933;28;20006;-64
2022/04/24 07:35:26;;;;;;;;;;;;;;;11.64;61.56;98485.50;5019027;28;19963;-65
2022/04/24 07:38:10;;;;;;;;;;;;;;;11.65;62.01;98490.69;5033660;28;20300;-65
2022/04/24 07:40:54;;;;;;;;;;;;;;;11.66;61.91;98492.41;5033326;28;19963;-65
2022/04/24 07:43:38;;;;;;;;;;;;;;;11.67;61.69;98496.72;5033698;28;19979;-65
2022/04/24 07:46:23;;;;;;;;;;;;;;;11.68;61.70;98494.97;5023340;28;19924;-65
2022/04/24 07:49:06;;;;;;;;;;;;;;;11.68;61.68;98492.38;5038155;28;19931;-65
2022/04/24 07:51:50;;;;;;;;;;;;;;;11.68;61.84;98487.19;5037789;28;20434;-66
2022/04/24 07:54:34;;;;;;;;;;;;;;;11.68;61.54;98493.22;5037671;28;19979;-65
2022/04/24 07:57:18;;;;;;;;;;;;;;;11.69;61.90;98497.53;5037722;28;19947;-66
2022/04/24 08:00:03;;;;;;;;;;;;;;;11.72;61.78;98494.91;5037816;28;19971;-65
2022/04/24 08:02:48;;;;;;;;;;;;;;;11.73;61.68;98499.22;5037452;28;19950;-65
2022/04/24 08:05:33;;;;;;;;;;;;;;;11.72;61.82;98496.66;5022505;28;19963;-66
2022/04/24 08:08:18;;;;;;;;;;;;;;;11.73;61.86;98503.56;5037301;28;19924;-64
2022/04/24 08:11:02;;;;;;;;;;;;;;;11.74;61.71;98505.28;5037041;28;20437;-65
2022/04/24 08:13:46;;;;;;;;;;;;;;;11.75;61.66;98508.72;5037842;28;19975;-66
2022/04/24 08:16:30;;;;;;;;;;;;;;;11.77;61.81;98506.97;5037100;28;19925;-65
2022/04/24 08:19:14;;;;;;;;;;;;;;;11.79;61.75;98513.00;5022690;28;19923;-66
2022/04/24 08:21:58;;;;;;;;;;;;;;;11.79;61.57;98505.22;5037528;28;20276;-65
2022/04/24 08:24:42;;;;;;;;;;;;;;;11.79;61.24;98506.06;5037397;28;19924;-65
2022/04/24 08:27:25;;;;;;;;;;;;;;;11.81;61.70;98506.06;5037395;28;19947;-65
2022/04/24 08:30:11;;;;;;;;;;;;;;;11.81;61.69;98504.31;5037391;28;20332;-64
2022/04/24 08:32:54;;;;;;;;;;;;;;;11.83;61.74;98510.34;5036635;28;20008;-65
2022/04/24 08:35:38;;;;;;;;;;;;;;;11.84;61.69;98509.47;5036671;28;19924;-65
2022/04/24 08:38:22;;;;;;;;;;;;;;;11.86;61.65;98502.53;5037260;28;19924;-65
2022/04/24 08:41:08;;;;;;;;;;;;;;;11.88;61.26;98511.16;5036903;28;20063;-65
2022/04/24 08:43:55;;;;;;;;;;;;;;;11.89;61.47;98517.19;5036998;28;20455;-65
2022/04/24 08:46:39;;;;;;;;;;;;;;;11.91;61.38;98514.59;5036322;28;19924;-65
2022/04/24 08:49:25;;;;;;;;;;;;;;;11.92;61.24;98516.28;5021375;28;19923;-65
2022/04/24 08:52:10;;;;;;;;;;;;;;;11.93;61.21;98513.69;5021910;28;20455;-65
2022/04/24 08:54:55;;;;;;;;;;;;;;;11.95;61.28;98524.91;5036464;28;20403;-65
2022/04/24 08:57:38;;;;;;;;;;;;;;;11.96;61.29;98518.84;5035548;28;19924;-65
2022/04/24 09:00:22;;;;;;;;;;;;;;;11.99;61.08;98526.59;5021369;28;20296;-64
2022/04/24 09:03:07;;;;;;;;;;;;;;;12.00;61.08;98515.31;5015607;28;20310;-65
2022/04/24 09:05:51;;;;;;;;;;;;;;;12.02;61.03;98521.34;5016654;28;19924;-65
2022/04/24 09:08:35;;;;;;;;;;;;;;;12.03;61.07;98524.84;5016449;28;19928;-65
2022/04/24 09:11:23;;;;;;;;;;;;;;;12.04;61.04;98518.75;5015505;28;19925;-65
2022/04/24 09:14:18;;;;;;;;;;;;;;;12.07;60.87;98528.22;5016698;28;20392;-65
2022/04/24 09:17:05;;;;;;;;;;;;;;;12.07;61.18;98520.44;5015730;28;19940;-65
2022/04/24 09:19:50;;;;;;;;;;;;;;;12.06;60.87;98529.97;5015580;28;19963;-66
2022/04/24 09:22:37;;;;;;;;;;;;;;;12.09;60.90;98527.31;5015531;28;19925;-65
2022/04/24 09:25:36;;;;;;;;;;;;;;;12.11;60.76;98528.16;5016317;28;19964;-65
2022/04/24 09:28:20;;;;;;;;;;;;;;;12.12;60.96;98524.69;5015506;28;19948;-65
2022/04/24 09:31:04;;;;;;;;;;;;;;;12.14;60.73;98528.13;5015694;28;19967;-65
2022/04/24 09:33:50;;;;;;;;;;;;;;;12.16;60.72;98517.69;5015326;28;19924;-65
2022/04/24 09:36:34;;;;;;;;;;;;;;;12.16;60.95;98520.28;5016153;28;20423;-65
2022/04/24 09:39:26;;;;;;;;;;;;;;;12.19;60.92;98522.84;5016106;28;19924;-65
2022/04/24 09:42:11;;;;;;;;;;;;;;;12.22;60.78;98524.56;5015621;28;20380;-66
2022/04/24 09:44:55;;;;;;;;;;;;;;;12.26;60.70;98529.69;5015255;28;19923;-65
2022/04/24 09:47:39;;;;;;;;;;;;;;;12.28;60.84;98535.72;5016141;28;20012;-65
2022/04/24 09:50:23;;;;;;;;;;;;;;;12.29;60.62;98527.06;5015118;28;20020;-65
2022/04/24 09:53:10;;;;;;;;;;;;;;;12.32;60.67;98523.53;5015580;28;19963;-65
2022/04/24 09:55:54;;;;;;;;;;;;;;;12.34;60.67;98525.22;5015296;28;19940;-65
2022/04/24 09:58:38;;;;;;;;;;;;;;;12.36;60.46;98525.22;5015694;28;19933;-65
2022/04/24 10:01:22;;;;;;;;;;;;;;;12.37;60.69;98524.34;5016248;28;19975;-65
2022/04/24 10:04:07;;;;;;;;;;;;;;;12.39;60.67;98535.53;5020608;28;19924;-65
2022/04/24 10:06:51;;;;;;;;;;;;;;;12.41;60.68;98522.53;5019988;28;19924;-66
2022/04/24 10:09:38;;;;;;;;;;;;;;;12.44;60.57;98525.94;5020477;28;19924;-65
2022/04/24 10:12:24;;;;;;;;;;;;;;;12.43;60.41;98521.63;5035203;28;20328;-65
2022/04/24 10:15:12;;;;;;;;;;;;;;;12.45;60.39;98521.63;5035096;28;20390;-65
2022/04/24 10:18:16;;;;;;;;;;;;;;;12.46;60.16;98528.50;5020358;28;19935;-66
2022/04/24 10:21:10;;;;;;;;;;;;;;;12.46;60.55;98529.38;5020394;28;19924;-64
2022/04/24 10:23:54;;;;;;;;;;;;;;;12.47;60.31;98531.09;5020413;28;19967;-65
2022/04/24 10:26:39;;;;;;;;;;;;;;;12.49;60.42;98528.44;5034753;28;19971;-65
2022/04/24 10:29:24;;;;;;;;;;;;;;;12.51;60.31;98536.25;5020252;28;19923;-65
2022/04/24 10:32:08;;;;;;;;;;;;;;;12.51;60.17;98538.84;5034825;28;19924;-65
2022/04/24 10:34:52;;;;;;;;;;;;;;;12.53;60.22;98542.28;5019903;28;19924;-65
2022/04/24 10:37:36;;;;;;;;;;;;;;;12.54;60.24;98528.38;5019970;28;19928;-65
2022/04/24 10:40:21;;;;;;;;;;;;;;;12.56;60.17;98539.59;5034909;28;19927;-65
2022/04/24 10:43:07;;;;;;;;;;;;;;;12.57;60.41;98541.31;5034578;28;19924;-65
2022/04/24 10:45:52;;;;;;;;;;;;;;;12.58;60.22;98543.03;5019889;28;19963;-65
2022/04/24 10:48:36;;;;;;;;;;;;;;;12.58;60.31;98536.13;5020005;28;19986;-65
2022/04/24 10:51:32;;;;;;;;;;;;;;;12.58;60.53;98537.84;5034566;28;19991;-65
2022/04/24 10:54:16;;;;;;;;;;;;;;;12.60;60.33;98533.47;5019291;28;20059;-65
2022/04/24 10:57:01;;;;;;;;;;;;;;;12.60;60.38;98534.34;5019723;28;19924;-66
2022/04/24 10:59:45;;;;;;;;;;;;;;;12.60;59.91;98542.16;5034533;28;19943;-66
2022/04/24 11:02:33;;;;;;;;;;;;;;;12.62;60.13;98542.13;5019382;28;20415;-65
2022/04/24 11:05:21;;;;;;;;;;;;;;;12.61;60.35;98536.03;5019219;28;19924;-65
2022/04/24 11:08:06;;;;;;;;;;;;;;;12.64;60.28;98540.34;5034648;28;19924;-65
2022/04/24 11:10:50;;;;;;;;;;;;;;;12.65;60.14;98542.06;5034661;28;19962;-65
2022/04/24 11:13:36;;;;;;;;;;;;;;;12.65;59.99;98542.06;5019476;28;19924;-65
2022/04/24 11:16:20;;;;;;;;;;;;;;;12.67;60.40;98542.91;5019118;28;20305;-66
2022/04/24 11:19:05;;;;;;;;;;;;;;;12.69;59.79;98540.28;5033551;28;19944;-65
2022/04/24 11:22:05;;;;;;;;;;;;;;;12.70;60.06;98536.78;5033938;28;19967;-66
2022/04/24 11:24:49;;;;;;;;;;;;;;;12.70;59.75;98540.22;5019292;28;20342;-66
2022/04/24 11:27:33;;;;;;;;;;;;;;;12.71;60.25;98543.72;5034323;28;19924;-66
2022/04/24 11:30:18;;;;;;;;;;;;;;;12.71;60.16;98543.72;5018623;28;20012;-65
2022/04/24 11:33:06;;;;;;;;;;;;;;;12.73;60.11;98539.34;5018793;28;19948;-65
2022/04/24 11:35:53;;;;;;;;;;;;;;;12.75;60.15;98548.81;5019027;28;19924;-65
2022/04/24 11:38:37;;;;;;;;;;;;;;;12.75;60.01;98548.81;5033682;28;19924;-65
2022/04/24 11:41:21;;;;;;;;;;;;;;;12.74;60.02;98538.47;5033929;28;19948;-65
2022/04/24 11:50:13;;;;;;;;;;;;;;;12.77;59.67;98546.19;5033951;28;19931;-65
2022/04/24 11:52:57;;;;;;;;;;;;;;;12.77;60.07;98551.38;5018814;28;19935;-65
2022/04/24 11:58:44;;;;;;;;;;;;;;;12.78;59.87;98542.72;5033505;28;20000;-65
2022/04/24 12:01:28;;;;;;;;;;;;;;;12.77;59.74;98549.66;5033508;28;19924;-66
2022/04/24 12:04:16;;;;;;;;;;;;;;;12.78;59.69;98547.91;5033530;28;19990;-65
2022/04/24 12:07:04;;;;;;;;;;;;;;;12.78;59.87;98548.78;5018898;28;19924;-66
2022/04/24 12:09:56;;;;;;;;;;;;;;;12.78;59.87;98556.56;5018544;28;19923;-66
2022/04/24 12:12:50;;;;;;;;;;;;;;;12.79;60.00;98553.09;5033490;28;19923;-65
2022/04/24 12:15:34;;;;;;;;;;;;;;;12.79;60.01;98552.22;5018714;28;19924;-65
2022/04/24 12:18:22;;;;;;;;;;;;;;;12.80;60.12;98553.94;5033795;28;19924;-65
2022/04/24 12:21:17;;;;;;;;;;;;;;;12.79;59.99;98557.41;5033157;28;19926;-66
2022/04/24 12:24:00;;;;;;;;;;;;;;;12.81;59.72;98555.66;5018487;28;19971;-65
2022/04/24 12:26:48;;;;;;;;;;;;;;;12.83;59.74;98563.44;5018614;28;19924;-65
2022/04/24 12:29:58;;;;;;;;;;;;;;;12.84;59.96;98560.81;5032928;28;20008;-65
2022/04/24 12:32:42;;;;;;;;;;;;;;;12.84;59.81;98560.81;5022045;28;20359;-65
2022/04/24 12:35:26;;;;;;;;;;;;;;;12.83;59.66;98564.28;5021569;28;19928;-66
2022/04/24 12:38:14;;;;;;;;;;;;;;;12.85;59.62;98572.06;5036722;28;19970;-65
2022/04/24 12:40:59;;;;;;;;;;;;;;;12.85;59.66;98567.72;5036933;28;19986;-65
2022/04/24 12:43:43;;;;;;;;;;;;;;;12.87;59.69;98559.88;5021806;28;19923;-65
2022/04/24 12:46:27;;;;;;;;;;;;;;;12.88;59.67;98572.00;5036408;28;19924;-65
2022/04/24 12:49:12;;;;;;;;;;;;;;;12.87;59.64;98559.88;5036813;28;19970;-65
2022/04/24 12:51:55;;;;;;;;;;;;;;;12.88;59.47;98567.69;5021839;28;19971;-65
2022/04/24 12:54:39;;;;;;;;;;;;;;;12.91;59.19;98569.38;5036711;28;19988;-65
2022/04/24 12:57:24;;;;;;;;;;;;;;;12.90;59.56;98565.91;5036612;28;19924;-65
2022/04/24 13:00:08;;;;;;;;;;;;;;;12.90;59.57;98571.13;5036556;28;19924;-65
2022/04/24 13:02:51;;;;;;;;;;;;;;;12.91;59.31;98572.84;5036541;28;20387;-65
2022/04/24 13:05:37;;;;;;;;;;;;;;;12.90;59.38;98575.44;5021493;28;19924;-65
2022/04/24 13:08:21;;;;;;;;;;;;;;;12.89;59.60;98574.59;5021341;28;20384;-66
2022/04/24 13:11:06;;;;;;;;;;;;;;;12.88;59.15;98572.88;5021740;28;20422;-66
2022/04/24 13:13:51;;;;;;;;;;;;;;;12.89;59.53;98584.13;5021698;28;19964;-65
2022/04/24 13:19:37;;;;;;;;;;;;;;;12.91;59.00;98585.84;5036295;28;20392;-65
2022/04/24 13:22:21;;;;;;;;;;;;;;;12.91;59.29;98583.25;5036523;28;20015;-65
2022/04/24 13:25:05;;;;;;;;;;;;;;;12.89;59.66;98586.72;5021274;28;19924;-65
2022/04/24 13:27:49;;;;;;;;;;;;;;;12.90;59.36;98581.53;5021260;28;19927;-65
2022/04/24 13:30:34;;;;;;;;;;;;;;;12.91;59.01;98587.56;5036251;28;19971;-65
2022/04/24 13:33:18;;;;;;;;;;;;;;;12.92;59.13;98586.69;5035904;28;19924;-65
2022/04/24 13:36:01;;;;;;;;;;;;;;;12.91;59.04;98587.56;5035490;28;20426;-65
2022/04/24 13:38:48;;;;;;;;;;;;;;;12.90;59.10;98588.44;5036022;28;20428;-65
2022/04/24 13:41:32;;;;;;;;;;;;;;;12.91;59.15;98590.16;5035784;28;19924;-65
2022/04/24 13:44:16;;;;;;;;;;;;;;;12.89;59.25;98582.41;5035410;28;19936;-65
2022/04/24 13:47:00;;;;;;;;;;;;;;;12.90;59.31;98589.31;5020949;28;19923;-65
2022/04/24 13:49:45;;;;;;;;;;;;;;;12.91;59.23;98595.38;5020412;28;20303;-65
2022/04/24 13:52:29;;;;;;;;;;;;;;;12.92;59.21;98594.47;5035742;28;19924;-65
2022/04/24 13:55:13;;;;;;;;;;;;;;;12.91;58.92;98591.03;5035490;28;19998;-65
2022/04/24 13:57:57;;;;;;;;;;;;;;;12.91;59.21;98593.63;5035624;28;19924;-65
2022/04/24 14:00:42;;;;;;;;;;;;;;;12.93;59.28;98593.59;5035392;28;19924;-65
2022/04/24 14:03:26;;;;;;;;;;;;;;;12.92;59.23;98599.69;5020260;28;20351;-65
2022/04/24 14:06:10;;;;;;;;;;;;;;;12.94;58.84;98600.53;5035506;28;19924;-65
2022/04/24 14:08:54;;;;;;;;;;;;;;;12.94;59.08;98605.72;5020429;28;19971;-65
2022/04/24 14:11:38;;;;;;;;;;;;;;;12.94;59.06;98610.94;5034991;28;19924;-65
2022/04/24 14:14:22;;;;;;;;;;;;;;;12.94;59.06;98605.72;5020132;28;19967;-66
2022/04/24 14:17:06;;;;;;;;;;;;;;;12.94;58.99;98600.53;5035399;28;20379;-65
2022/04/24 14:19:51;;;;;;;;;;;;;;;12.95;58.71;98602.25;5035374;28;20051;-65
2022/04/24 14:22:35;;;;;;;;;;;;;;;12.94;58.52;98603.13;5034934;28;20055;-65
2022/04/24 14:25:19;;;;;;;;;;;;;;;12.97;58.49;98610.00;5034829;28;20086;-65
2022/04/24 14:28:04;;;;;;;;;;;;;;;12.97;58.25;98603.06;5020339;28;19963;-65
2022/04/24 14:30:48;;;;;;;;;;;;;;;12.97;58.30;98597.88;5019729;28;20005;-65